Schedule Details


Flight Number: CTN476
Departure: Cilipi (LDDU) at 15:05
Arrival: Charles-de-gaulle (LFPG) at 17:30
Route: AMUGO UL611 UVODI L611 UMSON UL611 ROTAR L611 SUXAN UL613 LUL G4 RLP

Weather Information
LDDU 251800Z 03014KT 340V080 CAVOK 30/12 Q1015 NOSIG
LFPG 251800Z 04006KT 020V080 CAVOK 29/12 Q1018 NOSIG
Schedule Frequency

Route Map